Bryant, IL (61519)

2:03 PM CDT on April 24, 2017 (GMT -0500)
North Dunfermline | | Change Station
Active Advisory: Flood Warning

Elev 628 ft 40.49 °N, 90.03 °W | Updated 8 minutes ago

Clear
Clear
76.0 °F
Feels Like 77 °F
N
8.0
Wind Variable Wind from SSE
Gusts 15.0 mph

Today
High -- | Low -- °F
--% Chance of Precip.
Yesterday
High -- | Low -- °F
Precip. -- in
Pressure 29.85 in
Visibility 10.0 miles
Clouds Clear
Heat Index 77 °F
Dew Point 37 °F
Humidity 24%
Rainfall 0.00 in
Snow Depth Not available.
6:08 AM 7:49 PM
Waning Crescent, 4% visible
METAR KPIA 241854Z 13007G15KT 100V170 10SM CLR 24/00 A2986 RMK AO2 SLP108 T02390000
Pressure 29.85 in
Visibility 10.0 miles
Clouds Clear
Heat Index 77 °F
Dew Point 37 °F
Humidity 24%
Rainfall 0.00 in
Snow Depth Not available.
6:08 AM 7:49 PM
Waning Crescent, 4% visible
METAR KPIA 241854Z 13007G15KT 100V170 10SM CLR 24/00 A2986 RMK AO2 SLP108 T02390000

Get Your Daily Forecast Email!

Thanks for signing up!

Be on the lookout for a verification email in your inbox.

You'll start receiving severe weather alerts in your inbox..

×

10-Day Weather Forecast

Almanac

Astronomy

Apr. 24, 2017 Rise Set
Actual Time
Civil Twilight
Nautical Twilight
Astronomical Twilight
Moon
Length of Visible Light
Length of Day
Tomorrow will be .
, % of the Moon is Illuminated

Today's Extremes

State Highs State Lows

Community

WunderPhotos

WunderBlog® & News

Nearby

Air Quality

  Air Quality AQ Index Pollutant
Not available.

Snow Depth

Station Depth Elevation

Earthquake Activity

City Distance Mag. Time & Date
Minimum magnitude displayed is 2.5.

Coastal Water Temperatures

Place Temperature

Stations

Nearby Weather Stations

Station Location Temp. Windchill Dew Point Humidity Wind Precip. Elev Updated Type
                   

Watches & Warnings

Flood Warning
Issued: 11:07 AM CDT Apr. 24, 2017 – National Weather Service

The Flood Warning continues for
the Illinois River at Havana.
* Until further notice.
* At 1045 am Monday the stage was 16.7 feet.
* Flood stage is 14.0 feet.
* Minor flooding is occurring and minor flooding is forecast.
* Forecast... the river will continue a slow fall.



                  Fld observed forecast 6am
location stg stg day time Tue Wed Thu

Illinois River
Havana 14 16.7 Mon 11 am 16.5 16.1 15.7



Lat... Lon 4053 8988 4047 8980 4034 9002 4012 9017
      4018 9023 4039 9010